Time;durP1;ratioP1;P1;durP2;ratioP2;P2;SDS_P1;SDS_P2;PMS_P1;PMS_P2;Temp;Humidity;BMP_temperature;BMP_pressure;BME280_temperature;BME280_humidity;BME280_pressure;Samples;Min_cycle;Max_cycle;Signal;HPM_P1;HPM_P2
2023/08/27 00:08:55;;;;;;;29.50;19.67;;;16.30;99.90;;;;;;21053821;28;20037;-61
2023/08/27 00:18:58;;;;;;;27.63;21.98;;;16.30;99.90;;;;;;21053679;28;20437;-61
2023/08/27 00:29:00;;;;;;;29.05;23.58;;;16.40;99.90;;;;;;21050366;28;20066;-61
2023/08/27 00:39:02;;;;;;;29.98;22.95;;;16.50;99.90;;;;;;21044278;28;20036;-61
2023/08/27 00:49:04;;;;;;;31.13;24.13;;;16.60;99.90;;;;;;21051447;28;20031;-63
2023/08/27 00:59:06;;;;;;;34.25;25.88;;;16.60;99.90;;;;;;21032052;28;20539;-62
2023/08/27 01:09:12;;;;;;;35.13;26.08;;;16.80;99.90;;;;;;21013406;28;20545;-61
2023/08/27 01:19:15;;;;;;;30.63;22.27;;;16.90;99.90;;;;;;20976286;28;20027;-49
2023/08/27 01:29:24;;;;;;;27.88;21.00;;;16.90;99.90;;;;;;20984107;28;20039;-61
2023/08/27 01:39:25;;;;;;;26.10;20.35;;;17.00;99.90;;;;;;21001145;28;20027;-61
2023/08/27 01:49:27;;;;;;;28.85;19.95;;;17.10;99.90;;;;;;21036115;28;20094;-62
2023/08/27 01:59:29;;;;;;;25.10;18.35;;;17.10;99.90;;;;;;21008402;28;20052;-61
2023/08/27 02:09:31;;;;;;;18.58;14.63;;;16.90;99.90;;;;;;21004031;28;20046;-61
2023/08/27 02:19:34;;;;;;;21.58;13.95;;;16.80;99.90;;;;;;21037641;28;20043;-61
2023/08/27 02:29:36;;;;;;;20.13;14.73;;;16.60;99.90;;;;;;20999861;28;20056;-61
2023/08/27 02:39:38;;;;;;;24.30;15.80;;;16.40;99.90;;;;;;21043922;28;20032;-62
2023/08/27 02:49:39;;;;;;;18.25;14.82;;;16.20;99.90;;;;;;20977061;28;20033;-62
2023/08/27 02:59:41;;;;;;;22.48;16.17;;;16.30;99.90;;;;;;21016974;28;20036;-61
2023/08/27 03:09:43;;;;;;;24.52;16.42;;;16.40;99.90;;;;;;21015521;28;20056;-61
2023/08/27 03:19:44;;;;;;;22.25;16.42;;;16.30;99.90;;;;;;20977735;28;20032;-48
2023/08/27 03:29:46;;;;;;;13.52;11.57;;;16.00;99.90;;;;;;21005424;28;20044;-61
2023/08/27 03:39:48;;;;;;;15.32;12.73;;;15.50;99.90;;;;;;21003398;28;20028;-61
2023/08/27 03:49:50;;;;;;;17.60;13.68;;;15.40;99.90;;;;;;21000839;28;20109;-62
2023/08/27 03:59:52;;;;;;;18.48;13.88;;;15.30;99.90;;;;;;21034227;28;20059;-61
2023/08/27 04:09:54;;;;;;;18.42;14.52;;;15.20;99.90;;;;;;21028823;28;20036;-61
2023/08/27 04:19:56;;;;;;;20.23;16.52;;;15.20;99.90;;;;;;20999937;28;20054;-61
2023/08/27 04:29:57;;;;;;;22.58;15.48;;;15.10;99.90;;;;;;21016293;28;20415;-60
2023/08/27 04:39:59;;;;;;;18.60;15.43;;;15.00;99.90;;;;;;21018345;28;20428;-61
2023/08/27 04:50:01;;;;;;;18.15;13.88;;;14.90;99.90;;;;;;21010784;28;20058;-60
2023/08/27 05:00:07;;;;;;;17.08;13.25;;;14.90;99.90;;;;;;21009198;28;20082;-50
2023/08/27 05:10:09;;;;;;;22.27;17.05;;;15.00;99.90;;;;;;21013220;28;20082;-61
2023/08/27 05:20:12;;;;;;;20.88;15.60;;;15.00;99.90;;;;;;20976177;28;20028;-61
2023/08/27 05:30:15;;;;;;;19.17;13.65;;;15.00;99.90;;;;;;21015856;28;20085;-61
2023/08/27 05:40:17;;;;;;;16.55;13.77;;;15.00;99.90;;;;;;21002215;28;20085;-61
2023/08/27 05:50:19;;;;;;;13.95;12.07;;;14.90;99.90;;;;;;21004017;28;20036;-61
2023/08/27 06:00:21;;;;;;;13.45;11.80;;;15.00;99.90;;;;;;21003622;28;20045;-62
2023/08/27 06:10:25;;;;;;;15.13;11.48;;;15.00;99.90;;;;;;21011074;28;20591;-62
2023/08/27 06:20:27;;;;;;;13.52;10.48;;;15.30;99.90;;;;;;20991157;28;20078;-62
2023/08/27 06:30:29;;;;;;;13.27;8.80;;;15.60;99.90;;;;;;20994619;28;20443;-62
2023/08/27 06:40:33;;;;;;;9.55;7.35;;;16.20;99.90;;;;;;21000830;28;20033;-63
2023/08/27 06:50:35;;;;;;;7.07;6.35;;;17.80;99.90;;;;;;21006960;28;20032;-63
2023/08/27 07:00:39;;;;;;;7.53;6.70;;;19.50;99.90;;;;;;21026140;28;20044;-63
2023/08/27 07:10:42;;;;;;;10.02;7.40;;;20.10;99.90;;;;;;20994290;28;20042;-58
2023/08/27 07:20:43;;;;;;;9.57;6.78;;;20.00;99.90;;;;;;21006353;28;20082;-62
2023/08/27 07:30:51;;;;;;;6.95;5.50;;;20.70;99.90;;;;;;20998017;28;20546;-62
2023/08/27 07:40:53;;;;;;;6.50;4.93;;;22.40;99.90;;;;;;21013360;28;20100;-62
2023/08/27 07:50:56;;;;;;;5.75;5.00;;;24.40;99.90;;;;;;21022376;28;20496;-63
2023/08/27 08:00:59;;;;;;;6.75;5.00;;;24.70;99.90;;;;;;20996680;28;20044;-62
2023/08/27 08:11:01;;;;;;;9.82;6.03;;;23.10;99.90;;;;;;21037490;28;20036;-59
2023/08/27 08:21:04;;;;;;;9.30;6.55;;;22.60;99.90;;;;;;20987700;28;20082;-59
2023/08/27 08:31:05;;;;;;;8.55;7.30;;;21.90;99.90;;;;;;21013662;28;20474;-59
2023/08/27 08:41:10;;;;;;;8.77;3.20;;;21.90;99.90;;;;;;21002648;28;20028;-63
2023/08/27 08:51:13;;;;;;;5.65;2.97;;;21.50;99.90;;;;;;21007901;28;20024;-62
2023/08/27 09:01:19;;;;;;;6.63;3.40;;;21.30;99.90;;;;;;21016006;28;20101;-62
2023/08/27 09:11:21;;;;;;;10.50;3.58;;;21.20;99.90;;;;;;21004391;28;20068;-62
2023/08/27 09:21:23;;;;;;;6.90;3.70;;;21.10;99.90;;;;;;21005660;28;20180;-62
2023/08/27 09:31:42;;;;;;;9.85;3.85;;;21.30;99.90;;;;;;21005351;28;20550;-62
2023/08/27 09:41:45;;;;;;;7.95;4.20;;;21.40;99.90;;;;;;21014207;28;20465;-61
2023/08/27 09:51:47;;;;;;;9.40;4.25;;;22.50;99.90;;;;;;21000841;28;20113;-54
2023/08/27 10:01:51;;;;;;;8.40;3.72;;;22.60;99.90;;;;;;20997864;28;20489;-52
2023/08/27 10:11:52;;;;;;;7.97;4.57;;;22.90;99.90;;;;;;21007721;28;20040;-62
2023/08/27 10:21:55;;;;;;;10.77;4.03;;;23.60;99.90;;;;;;21002820;28;20032;-62
2023/08/27 10:31:57;;;;;;;5.68;3.83;;;23.70;99.90;;;;;;21002006;28;20058;-63
2023/08/27 10:41:59;;;;;;;10.23;4.28;;;23.50;99.90;;;;;;21005119;28;20028;-63
2023/08/27 10:52:18;;;;;;;9.65;4.80;;;23.40;99.90;;;;;;20994769;28;20038;-62
2023/08/27 11:02:20;;;;;;;6.55;4.28;;;23.20;99.90;;;;;;20980167;28;20048;-62
2023/08/27 11:12:26;;;;;;;9.35;3.78;;;22.60;99.90;;;;;;20993606;28;20317;-63
2023/08/27 11:22:28;;;;;;;5.60;3.55;;;22.60;99.90;;;;;;21018132;28;20224;-62
2023/08/27 11:32:29;;;;;;;7.90;3.70;;;22.00;99.90;;;;;;21006157;28;20032;-62
2023/08/27 11:42:31;;;;;;;7.68;4.10;;;21.10;99.90;;;;;;21015224;28;20045;-62
2023/08/27 11:52:36;;;;;;;6.72;3.47;;;20.20;99.90;;;;;;21009159;28;20038;-61
2023/08/27 12:02:39;;;;;;;6.70;3.60;;;19.90;99.90;;;;;;21013410;28;20374;-51
2023/08/27 12:12:44;;;;;;;8.98;4.60;;;19.50;99.90;;;;;;21009880;28;20498;-61
2023/08/27 12:22:47;;;;;;;7.50;5.43;;;18.90;99.90;;;;;;21019688;28;20415;-61
2023/08/27 12:32:54;;;;;;;12.85;7.38;;;18.40;99.90;;;;;;20999287;28;20483;-48
2023/08/27 12:42:57;;;;;;;12.25;7.63;;;17.80;99.90;;;;;;21001238;28;20102;-63
2023/08/27 12:52:59;;;;;;;10.38;8.43;;;16.90;99.90;;;;;;20998230;28;20481;-63
2023/08/27 13:03:01;;;;;;;12.23;8.50;;;16.50;99.90;;;;;;21015713;28;20045;-63
2023/08/27 13:13:03;;;;;;;13.35;10.25;;;16.20;99.90;;;;;;21018945;28;20033;-62
2023/08/27 13:23:05;;;;;;;19.35;13.57;;;15.90;99.90;;;;;;21007583;28;20059;-61
2023/08/27 13:33:10;;;;;;;19.48;13.05;;;15.70;99.90;;;;;;21000729;28;20432;-49
2023/08/27 13:43:12;;;;;;;22.80;15.57;;;15.30;99.90;;;;;;20976785;28;20432;-48
2023/08/27 13:53:15;;;;;;;20.77;13.70;;;15.30;99.90;;;;;;20994566;28;20050;-62
2023/08/27 14:03:17;;;;;;;16.08;12.02;;;15.50;99.90;;;;;;21001379;28;20046;-62
2023/08/27 14:13:21;;;;;;;13.88;10.25;;;15.70;99.90;;;;;;21004468;28;20101;-62
2023/08/27 14:23:24;;;;;;;12.00;6.60;;;16.00;99.90;;;;;;21008773;28;20032;-62
2023/08/27 14:33:28;;;;;;;9.43;5.18;;;16.10;99.90;;;;;;20975948;28;20126;-61
2023/08/27 14:43:30;;;;;;;8.13;4.70;;;16.30;99.90;;;;;;20986929;28;20082;-61
2023/08/27 14:53:32;;;;;;;7.55;4.40;;;17.00;99.90;;;;;;21013574;28;20078;-63
2023/08/27 15:03:33;;;;;;;11.60;5.10;;;18.40;99.90;;;;;;21000846;28;20078;-62
2023/08/27 15:13:38;;;;;;;10.13;4.93;;;19.10;99.90;;;;;;21027208;28;20077;-61
2023/08/27 15:23:40;;;;;;;6.13;4.90;;;19.70;99.90;;;;;;21022318;28;20036;-61
2023/08/27 15:33:42;;;;;;;7.03;5.28;;;19.80;99.90;;;;;;21026606;28;20032;-57
2023/08/27 15:43:44;;;;;;;5.90;4.78;;;20.00;99.90;;;;;;21013025;28;20133;-61
2023/08/27 15:53:47;;;;;;;7.53;5.43;;;19.70;99.90;;;;;;21033318;28;20032;-61
2023/08/27 16:03:49;;;;;;;12.27;7.00;;;18.70;99.90;;;;;;21034683;28;20112;-61
2023/08/27 16:13:51;;;;;;;14.73;10.30;;;17.30;99.90;;;;;;21003027;28;20077;-60
2023/08/27 16:23:53;;;;;;;12.95;9.93;;;16.20;99.90;;;;;;21013017;28;20455;-61
2023/08/27 16:33:57;;;;;;;13.75;10.60;;;15.70;99.90;;;;;;21008890;28;20032;-60
2023/08/27 16:44:01;;;;;;;12.05;9.88;;;15.40;99.90;;;;;;21008431;28;20036;-61
2023/08/27 16:54:03;;;;;;;12.70;10.45;;;15.20;99.90;;;;;;21012483;28;20439;-60
2023/08/27 17:04:05;;;;;;;15.10;10.32;;;15.20;99.90;;;;;;21013858;28;20109;-60
2023/08/27 17:14:08;;;;;;;14.13;10.75;;;15.10;99.90;;;;;;21038800;28;20081;-51
2023/08/27 17:24:11;;;;;;;13.10;10.93;;;15.00;99.90;;;;;;21004064;28;20136;-61
2023/08/27 17:34:13;;;;;;;14.73;10.68;;;14.90;99.90;;;;;;21007358;28;20020;-61
2023/08/27 17:44:15;;;;;;;14.23;10.68;;;14.80;99.90;;;;;;21024584;28;20033;-61
2023/08/27 17:54:17;;;;;;;13.50;10.85;;;14.80;99.90;;;;;;21004843;28;20485;-58
2023/08/27 18:04:19;;;;;;;15.18;10.75;;;14.70;99.90;;;;;;21020160;28;20071;-50
2023/08/27 18:14:21;;;;;;;14.98;10.80;;;14.80;99.90;;;;;;21042361;28;20034;-59
2023/08/27 18:24:23;;;;;;;13.10;9.65;;;15.00;99.90;;;;;;21039582;28;20040;-53
2023/08/27 18:34:26;;;;;;;14.98;10.50;;;15.00;99.90;;;;;;21009565;28;20036;-61
2023/08/27 18:44:28;;;;;;;14.70;9.43;;;15.00;99.90;;;;;;21037677;28;20137;-61
2023/08/27 18:54:34;;;;;;;12.52;8.30;;;15.00;99.90;;;;;;21007638;28;20028;-62
2023/08/27 19:04:37;;;;;;;11.57;9.27;;;14.90;99.90;;;;;;21043379;28;20040;-61
2023/08/27 19:14:39;;;;;;;13.43;9.43;;;14.90;99.90;;;;;;21042525;28;20082;-61
2023/08/27 19:24:43;;;;;;;11.63;9.25;;;14.90;99.90;;;;;;21010570;28;20032;-62
2023/08/27 19:34:44;;;;;;;12.55;9.82;;;15.00;99.90;;;;;;21042503;28;20028;-62
2023/08/27 19:44:48;;;;;;;11.82;10.30;;;15.20;99.90;;;;;;21006090;28;20036;-62
2023/08/27 19:54:51;;;;;;;12.75;9.73;;;15.40;99.90;;;;;;21046399;28;20040;-54
2023/08/27 20:04:53;;;;;;;13.35;10.90;;;15.90;99.90;;;;;;21015083;28;20048;-62
2023/08/27 20:14:55;;;;;;;12.35;9.95;;;16.10;99.90;;;;;;21013693;28;20556;-55
2023/08/27 20:24:57;;;;;;;12.68;10.90;;;16.50;99.90;;;;;;21042134;28;20032;-62
2023/08/27 20:34:59;;;;;;;14.05;10.65;;;16.70;99.90;;;;;;21032840;28;20477;-62
2023/08/27 20:45:03;;;;;;;12.73;9.27;;;16.60;99.90;;;;;;21051229;28;20036;-63
2023/08/27 20:55:06;;;;;;;13.75;11.63;;;16.70;99.90;;;;;;21050236;28;20050;-62
2023/08/27 21:05:08;;;;;;;13.88;10.40;;;17.10;99.90;;;;;;21050416;28;20044;-62
2023/08/27 21:15:10;;;;;;;14.30;10.05;;;17.20;99.90;;;;;;21036430;28;20044;-63
2023/08/27 21:25:12;;;;;;;14.05;10.20;;;17.30;99.90;;;;;;21037697;28;20032;-55
2023/08/27 21:35:14;;;;;;;13.30;11.27;;;17.60;99.90;;;;;;21047191;28;20078;-63
2023/08/27 21:45:16;;;;;;;13.65;10.95;;;17.80;99.90;;;;;;21005086;28;20032;-63
2023/08/27 21:55:18;;;;;;;12.90;11.05;;;17.60;99.90;;;;;;21025479;28;20045;-62
2023/08/27 22:05:20;;;;;;;14.45;11.50;;;17.50;99.90;;;;;;21017216;28;20052;-52
2023/08/27 22:15:23;;;;;;;16.13;12.18;;;17.40;99.90;;;;;;21031525;28;20045;-63
2023/08/27 22:25:25;;;;;;;13.43;10.73;;;17.40;99.90;;;;;;21014012;28;20028;-54
2023/08/27 22:35:26;;;;;;;17.98;11.73;;;17.90;99.90;;;;;;21043996;28;20024;-63
2023/08/27 22:45:28;;;;;;;15.95;12.00;;;17.90;99.90;;;;;;21044031;28;20020;-63
2023/08/27 22:55:30;;;;;;;13.98;10.25;;;17.60;99.90;;;;;;21031189;28;20032;-62
2023/08/27 23:05:31;;;;;;;15.50;9.82;;;18.00;99.90;;;;;;21007220;28;20101;-60
2023/08/27 23:15:33;;;;;;;12.50;10.20;;;17.90;99.90;;;;;;21043011;28;20040;-62
2023/08/27 23:25:38;;;;;;;13.13;11.02;;;17.80;99.90;;;;;;21056791;28;20069;-63
2023/08/27 23:35:41;;;;;;;15.10;11.68;;;17.80;99.90;;;;;;21025969;28;20097;-63
2023/08/27 23:45:43;;;;;;;15.43;11.95;;;17.90;99.90;;;;;;21056982;28;20093;-64
2023/08/27 23:55:45;;;;;;;16.70;12.68;;;17.70;99.90;;;;;;21055816;28;20476;-63
